sensor_id;sensor_type;location;lat;lon;timestamp;P1;durP1;ratioP1;P2;durP2;ratioP2
31966;SDS011;18496;52.042;6.812;2024-01-10T00:01:16;8.63;;;4.10;;
31966;SDS011;18496;52.042;6.812;2024-01-10T00:03:20;7.30;;;3.97;;
31966;SDS011;18496;52.042;6.812;2024-01-10T00:05:24;18.00;;;4.80;;
31966;SDS011;18496;52.042;6.812;2024-01-10T00:07:28;13.70;;;3.65;;
31966;SDS011;18496;52.042;6.812;2024-01-10T00:09:32;10.13;;;3.95;;
31966;SDS011;18496;52.042;6.812;2024-01-10T00:11:35;10.57;;;4.07;;
31966;SDS011;18496;52.042;6.812;2024-01-10T00:13:39;7.95;;;3.75;;
31966;SDS011;18496;52.042;6.812;2024-01-10T00:15:43;8.85;;;4.20;;
31966;SDS011;18496;52.042;6.812;2024-01-10T00:17:47;9.70;;;4.40;;
31966;SDS011;18496;52.042;6.812;2024-01-10T00:19:50;8.57;;;4.40;;
31966;SDS011;18496;52.042;6.812;2024-01-10T00:21:54;23.63;;;8.55;;
31966;SDS011;18496;52.042;6.812;2024-01-10T00:23:58;14.88;;;6.20;;
31966;SDS011;18496;52.042;6.812;2024-01-10T00:26:02;12.65;;;5.47;;
31966;SDS011;18496;52.042;6.812;2024-01-10T00:28:06;11.05;;;5.28;;
31966;SDS011;18496;52.042;6.812;2024-01-10T00:30:09;10.32;;;3.55;;
31966;SDS011;18496;52.042;6.812;2024-01-10T00:32:13;17.00;;;4.28;;
31966;SDS011;18496;52.042;6.812;2024-01-10T00:34:17;13.93;;;4.63;;
31966;SDS011;18496;52.042;6.812;2024-01-10T00:36:21;9.45;;;4.38;;
31966;SDS011;18496;52.042;6.812;2024-01-10T00:38:24;11.10;;;4.32;;
31966;SDS011;18496;52.042;6.812;2024-01-10T00:40:28;13.30;;;4.10;;
31966;SDS011;18496;52.042;6.812;2024-01-10T00:42:32;11.18;;;4.47;;
31966;SDS011;18496;52.042;6.812;2024-01-10T00:44:35;7.95;;;3.63;;
31966;SDS011;18496;52.042;6.812;2024-01-10T00:46:39;13.48;;;4.32;;
31966;SDS011;18496;52.042;6.812;2024-01-10T00:48:43;6.28;;;3.88;;
31966;SDS011;18496;52.042;6.812;2024-01-10T00:50:47;11.95;;;5.28;;
31966;SDS011;18496;52.042;6.812;2024-01-10T00:52:51;8.18;;;3.50;;
31966;SDS011;18496;52.042;6.812;2024-01-10T00:54:54;10.93;;;4.20;;
31966;SDS011;18496;52.042;6.812;2024-01-10T00:56:58;10.13;;;4.10;;
31966;SDS011;18496;52.042;6.812;2024-01-10T00:59:02;12.43;;;4.40;;
31966;SDS011;18496;52.042;6.812;2024-01-10T01:01:06;12.18;;;4.60;;
31966;SDS011;18496;52.042;6.812;2024-01-10T01:03:09;12.20;;;4.68;;
31966;SDS011;18496;52.042;6.812;2024-01-10T01:05:13;13.07;;;4.85;;
31966;SDS011;18496;52.042;6.812;2024-01-10T01:07:17;12.73;;;4.82;;
31966;SDS011;18496;52.042;6.812;2024-01-10T01:09:21;9.63;;;4.07;;
31966;SDS011;18496;52.042;6.812;2024-01-10T01:11:24;12.35;;;4.60;;
31966;SDS011;18496;52.042;6.812;2024-01-10T01:13:28;11.18;;;4.43;;
31966;SDS011;18496;52.042;6.812;2024-01-10T01:15:32;10.13;;;4.30;;
31966;SDS011;18496;52.042;6.812;2024-01-10T01:17:36;9.93;;;4.40;;
31966;SDS011;18496;52.042;6.812;2024-01-10T01:19:40;9.35;;;4.40;;
31966;SDS011;18496;52.042;6.812;2024-01-10T01:21:43;12.40;;;4.47;;
31966;SDS011;18496;52.042;6.812;2024-01-10T01:23:47;11.00;;;4.60;;
31966;SDS011;18496;52.042;6.812;2024-01-10T01:25:51;11.77;;;4.70;;
31966;SDS011;18496;52.042;6.812;2024-01-10T01:27:54;9.88;;;4.35;;
31966;SDS011;18496;52.042;6.812;2024-01-10T01:29:58;9.65;;;3.75;;
31966;SDS011;18496;52.042;6.812;2024-01-10T01:32:02;9.38;;;4.03;;
31966;SDS011;18496;52.042;6.812;2024-01-10T01:34:06;10.82;;;4.10;;
31966;SDS011;18496;52.042;6.812;2024-01-10T01:36:09;11.65;;;4.78;;
31966;SDS011;18496;52.042;6.812;2024-01-10T01:38:13;9.70;;;5.00;;
31966;SDS011;18496;52.042;6.812;2024-01-10T01:40:17;8.13;;;4.15;;
31966;SDS011;18496;52.042;6.812;2024-01-10T01:42:22;8.85;;;4.10;;
31966;SDS011;18496;52.042;6.812;2024-01-10T01:44:27;11.35;;;4.32;;
31966;SDS011;18496;52.042;6.812;2024-01-10T01:46:31;9.43;;;3.80;;
31966;SDS011;18496;52.042;6.812;2024-01-10T01:48:35;9.63;;;3.78;;
31966;SDS011;18496;52.042;6.812;2024-01-10T01:50:40;9.93;;;3.97;;
31966;SDS011;18496;52.042;6.812;2024-01-10T01:52:44;16.38;;;6.43;;
31966;SDS011;18496;52.042;6.812;2024-01-10T01:54:48;14.65;;;4.68;;
31966;SDS011;18496;52.042;6.812;2024-01-10T01:56:52;9.93;;;4.63;;
31966;SDS011;18496;52.042;6.812;2024-01-10T01:58:56;11.65;;;4.68;;
31966;SDS011;18496;52.042;6.812;2024-01-10T02:01:01;12.20;;;4.68;;
31966;SDS011;18496;52.042;6.812;2024-01-10T02:03:07;8.98;;;3.88;;
31966;SDS011;18496;52.042;6.812;2024-01-10T02:05:13;9.00;;;4.57;;
31966;SDS011;18496;52.042;6.812;2024-01-10T02:07:18;15.85;;;4.45;;
31966;SDS011;18496;52.042;6.812;2024-01-10T02:09:22;9.77;;;4.38;;
31966;SDS011;18496;52.042;6.812;2024-01-10T02:11:26;13.10;;;5.30;;
31966;SDS011;18496;52.042;6.812;2024-01-10T02:13:30;10.77;;;4.40;;
31966;SDS011;18496;52.042;6.812;2024-01-10T02:15:38;7.75;;;3.70;;
31966;SDS011;18496;52.042;6.812;2024-01-10T02:17:42;11.35;;;4.28;;
31966;SDS011;18496;52.042;6.812;2024-01-10T02:19:46;9.68;;;4.15;;
31966;SDS011;18496;52.042;6.812;2024-01-10T02:21:49;9.10;;;4.25;;
31966;SDS011;18496;52.042;6.812;2024-01-10T02:23:53;9.38;;;4.18;;
31966;SDS011;18496;52.042;6.812;2024-01-10T02:25:57;10.00;;;4.63;;
31966;SDS011;18496;52.042;6.812;2024-01-10T02:28:01;11.38;;;4.20;;
31966;SDS011;18496;52.042;6.812;2024-01-10T02:30:05;10.00;;;4.47;;
31966;SDS011;18496;52.042;6.812;2024-01-10T02:32:09;10.48;;;4.53;;
31966;SDS011;18496;52.042;6.812;2024-01-10T02:34:13;9.80;;;4.22;;
31966;SDS011;18496;52.042;6.812;2024-01-10T02:36:17;12.57;;;3.97;;
31966;SDS011;18496;52.042;6.812;2024-01-10T02:38:20;13.52;;;4.40;;
31966;SDS011;18496;52.042;6.812;2024-01-10T02:40:26;9.57;;;4.35;;
31966;SDS011;18496;52.042;6.812;2024-01-10T02:42:31;9.75;;;4.57;;
31966;SDS011;18496;52.042;6.812;2024-01-10T02:44:35;12.82;;;4.60;;
31966;SDS011;18496;52.042;6.812;2024-01-10T02:46:38;8.30;;;3.90;;
31966;SDS011;18496;52.042;6.812;2024-01-10T02:48:42;8.90;;;4.05;;
31966;SDS011;18496;52.042;6.812;2024-01-10T02:50:46;10.05;;;4.18;;
31966;SDS011;18496;52.042;6.812;2024-01-10T02:52:50;11.45;;;4.80;;
31966;SDS011;18496;52.042;6.812;2024-01-10T02:54:53;9.80;;;4.28;;
31966;SDS011;18496;52.042;6.812;2024-01-10T02:56:57;9.35;;;3.92;;
31966;SDS011;18496;52.042;6.812;2024-01-10T02:59:01;10.57;;;4.32;;
31966;SDS011;18496;52.042;6.812;2024-01-10T03:01:05;11.43;;;4.95;;
31966;SDS011;18496;52.042;6.812;2024-01-10T03:03:09;10.25;;;4.05;;
31966;SDS011;18496;52.042;6.812;2024-01-10T03:05:14;13.90;;;4.90;;
31966;SDS011;18496;52.042;6.812;2024-01-10T03:07:18;9.98;;;4.72;;
31966;SDS011;18496;52.042;6.812;2024-01-10T03:09:22;10.75;;;4.25;;
31966;SDS011;18496;52.042;6.812;2024-01-10T03:11:26;11.98;;;4.75;;
31966;SDS011;18496;52.042;6.812;2024-01-10T03:13:30;8.68;;;3.75;;
31966;SDS011;18496;52.042;6.812;2024-01-10T03:15:34;9.43;;;4.72;;
31966;SDS011;18496;52.042;6.812;2024-01-10T03:17:37;11.10;;;5.00;;
31966;SDS011;18496;52.042;6.812;2024-01-10T03:19:41;15.27;;;5.13;;
31966;SDS011;18496;52.042;6.812;2024-01-10T03:21:47;9.05;;;4.47;;
31966;SDS011;18496;52.042;6.812;2024-01-10T03:23:58;13.02;;;4.63;;
31966;SDS011;18496;52.042;6.812;2024-01-10T03:26:03;9.93;;;4.25;;
31966;SDS011;18496;52.042;6.812;2024-01-10T03:28:07;9.05;;;4.28;;
31966;SDS011;18496;52.042;6.812;2024-01-10T03:30:11;9.90;;;4.60;;
31966;SDS011;18496;52.042;6.812;2024-01-10T03:32:14;12.25;;;4.90;;
31966;SDS011;18496;52.042;6.812;2024-01-10T03:34:18;9.63;;;4.45;;
31966;SDS011;18496;52.042;6.812;2024-01-10T03:36:22;12.27;;;4.43;;
31966;SDS011;18496;52.042;6.812;2024-01-10T03:38:26;12.20;;;4.97;;
31966;SDS011;18496;52.042;6.812;2024-01-10T03:40:29;10.18;;;4.53;;
31966;SDS011;18496;52.042;6.812;2024-01-10T03:42:33;13.50;;;4.72;;
31966;SDS011;18496;52.042;6.812;2024-01-10T03:44:37;11.25;;;4.15;;
31966;SDS011;18496;52.042;6.812;2024-01-10T03:46:41;11.73;;;4.70;;
31966;SDS011;18496;52.042;6.812;2024-01-10T03:48:44;8.98;;;4.53;;
31966;SDS011;18496;52.042;6.812;2024-01-10T03:50:51;10.57;;;4.95;;
31966;SDS011;18496;52.042;6.812;2024-01-10T03:52:55;15.43;;;4.88;;
31966;SDS011;18496;52.042;6.812;2024-01-10T03:54:58;11.35;;;5.18;;
31966;SDS011;18496;52.042;6.812;2024-01-10T03:57:02;10.02;;;4.47;;
31966;SDS011;18496;52.042;6.812;2024-01-10T03:59:06;12.18;;;5.30;;
31966;SDS011;18496;52.042;6.812;2024-01-10T04:01:10;13.20;;;5.35;;
31966;SDS011;18496;52.042;6.812;2024-01-10T04:03:14;15.05;;;4.70;;
31966;SDS011;18496;52.042;6.812;2024-01-10T04:05:17;10.48;;;5.28;;
31966;SDS011;18496;52.042;6.812;2024-01-10T04:07:22;11.18;;;4.90;;
31966;SDS011;18496;52.042;6.812;2024-01-10T04:09:26;10.02;;;4.40;;
31966;SDS011;18496;52.042;6.812;2024-01-10T04:11:30;10.95;;;4.53;;
31966;SDS011;18496;52.042;6.812;2024-01-10T04:13:33;10.57;;;4.47;;
31966;SDS011;18496;52.042;6.812;2024-01-10T04:15:38;12.45;;;5.20;;
31966;SDS011;18496;52.042;6.812;2024-01-10T04:17:41;9.60;;;4.15;;
31966;SDS011;18496;52.042;6.812;2024-01-10T04:19:45;11.20;;;4.28;;
31966;SDS011;18496;52.042;6.812;2024-01-10T04:21:49;11.80;;;4.45;;
31966;SDS011;18496;52.042;6.812;2024-01-10T04:23:53;10.48;;;4.85;;
31966;SDS011;18496;52.042;6.812;2024-01-10T04:25:56;11.88;;;4.85;;
31966;SDS011;18496;52.042;6.812;2024-01-10T04:28:00;19.42;;;5.38;;
31966;SDS011;18496;52.042;6.812;2024-01-10T04:30:05;15.27;;;5.20;;
31966;SDS011;18496;52.042;6.812;2024-01-10T04:32:09;13.77;;;6.57;;
31966;SDS011;18496;52.042;6.812;2024-01-10T04:34:13;13.07;;;5.90;;
31966;SDS011;18496;52.042;6.812;2024-01-10T04:36:17;15.48;;;7.07;;
31966;SDS011;18496;52.042;6.812;2024-01-10T04:38:20;13.85;;;5.63;;
31966;SDS011;18496;52.042;6.812;2024-01-10T04:40:24;13.75;;;5.70;;
31966;SDS011;18496;52.042;6.812;2024-01-10T04:42:28;12.20;;;5.05;;
31966;SDS011;18496;52.042;6.812;2024-01-10T04:44:33;11.98;;;5.07;;
31966;SDS011;18496;52.042;6.812;2024-01-10T04:46:36;12.70;;;5.63;;
31966;SDS011;18496;52.042;6.812;2024-01-10T04:48:40;9.90;;;5.22;;
31966;SDS011;18496;52.042;6.812;2024-01-10T04:50:44;12.63;;;5.70;;
31966;SDS011;18496;52.042;6.812;2024-01-10T04:52:48;12.98;;;5.35;;
31966;SDS011;18496;52.042;6.812;2024-01-10T04:54:51;12.93;;;5.80;;
31966;SDS011;18496;52.042;6.812;2024-01-10T04:56:55;9.25;;;4.90;;
31966;SDS011;18496;52.042;6.812;2024-01-10T04:58:59;11.80;;;5.65;;
31966;SDS011;18496;52.042;6.812;2024-01-10T05:01:03;12.95;;;5.68;;
31966;SDS011;18496;52.042;6.812;2024-01-10T05:03:07;11.38;;;4.97;;
31966;SDS011;18496;52.042;6.812;2024-01-10T05:05:10;13.45;;;6.43;;
31966;SDS011;18496;52.042;6.812;2024-01-10T05:07:14;15.35;;;5.90;;
31966;SDS011;18496;52.042;6.812;2024-01-10T05:09:18;13.85;;;5.25;;
31966;SDS011;18496;52.042;6.812;2024-01-10T05:11:22;15.10;;;5.82;;
31966;SDS011;18496;52.042;6.812;2024-01-10T05:13:25;14.82;;;5.95;;
31966;SDS011;18496;52.042;6.812;2024-01-10T05:15:29;16.40;;;7.72;;
31966;SDS011;18496;52.042;6.812;2024-01-10T05:17:33;17.60;;;6.13;;
31966;SDS011;18496;52.042;6.812;2024-01-10T05:19:37;14.07;;;7.22;;
31966;SDS011;18496;52.042;6.812;2024-01-10T05:21:40;16.77;;;6.80;;
31966;SDS011;18496;52.042;6.812;2024-01-10T05:23:44;15.85;;;6.13;;
31966;SDS011;18496;52.042;6.812;2024-01-10T05:25:48;16.80;;;6.60;;
31966;SDS011;18496;52.042;6.812;2024-01-10T05:27:52;11.45;;;5.55;;
31966;SDS011;18496;52.042;6.812;2024-01-10T05:29:56;15.95;;;6.32;;
31966;SDS011;18496;52.042;6.812;2024-01-10T05:32:00;12.95;;;5.45;;
31966;SDS011;18496;52.042;6.812;2024-01-10T05:34:03;12.95;;;6.30;;
31966;SDS011;18496;52.042;6.812;2024-01-10T05:36:08;13.93;;;6.05;;
31966;SDS011;18496;52.042;6.812;2024-01-10T05:38:15;16.52;;;6.70;;
31966;SDS011;18496;52.042;6.812;2024-01-10T05:40:19;15.23;;;6.25;;
31966;SDS011;18496;52.042;6.812;2024-01-10T05:42:23;15.27;;;6.30;;
31966;SDS011;18496;52.042;6.812;2024-01-10T05:44:27;14.38;;;6.22;;
31966;SDS011;18496;52.042;6.812;2024-01-10T05:46:30;16.90;;;5.65;;
31966;SDS011;18496;52.042;6.812;2024-01-10T05:48:34;17.70;;;7.00;;
31966;SDS011;18496;52.042;6.812;2024-01-10T05:50:38;16.17;;;6.68;;
31966;SDS011;18496;52.042;6.812;2024-01-10T05:52:42;16.52;;;6.18;;
31966;SDS011;18496;52.042;6.812;2024-01-10T05:54:46;18.88;;;7.65;;
31966;SDS011;18496;52.042;6.812;2024-01-10T05:56:51;16.08;;;6.88;;
31966;SDS011;18496;52.042;6.812;2024-01-10T05:58:55;12.57;;;6.55;;
31966;SDS011;18496;52.042;6.812;2024-01-10T06:00:58;22.55;;;6.72;;
31966;SDS011;18496;52.042;6.812;2024-01-10T06:03:02;19.88;;;8.18;;
31966;SDS011;18496;52.042;6.812;2024-01-10T06:05:06;16.35;;;6.85;;
31966;SDS011;18496;52.042;6.812;2024-01-10T06:07:14;20.25;;;7.88;;
31966;SDS011;18496;52.042;6.812;2024-01-10T06:09:17;18.02;;;8.32;;
31966;SDS011;18496;52.042;6.812;2024-01-10T06:11:24;19.05;;;7.72;;
31966;SDS011;18496;52.042;6.812;2024-01-10T06:13:28;18.73;;;7.50;;
31966;SDS011;18496;52.042;6.812;2024-01-10T06:15:32;16.50;;;7.05;;
31966;SDS011;18496;52.042;6.812;2024-01-10T06:17:36;20.35;;;8.07;;
31966;SDS011;18496;52.042;6.812;2024-01-10T06:19:41;16.55;;;7.22;;
31966;SDS011;18496;52.042;6.812;2024-01-10T06:21:44;18.73;;;7.80;;
31966;SDS011;18496;52.042;6.812;2024-01-10T06:23:48;42.78;;;15.02;;
31966;SDS011;18496;52.042;6.812;2024-01-10T06:25:52;25.08;;;8.85;;
31966;SDS011;18496;52.042;6.812;2024-01-10T06:27:57;25.63;;;9.20;;
31966;SDS011;18496;52.042;6.812;2024-01-10T06:30:01;18.17;;;7.57;;
31966;SDS011;18496;52.042;6.812;2024-01-10T06:32:06;17.95;;;8.52;;
31966;SDS011;18496;52.042;6.812;2024-01-10T06:34:10;21.05;;;8.60;;
31966;SDS011;18496;52.042;6.812;2024-01-10T06:36:14;20.45;;;7.82;;
31966;SDS011;18496;52.042;6.812;2024-01-10T06:38:18;18.67;;;8.07;;
31966;SDS011;18496;52.042;6.812;2024-01-10T06:40:23;17.10;;;7.75;;
31966;SDS011;18496;52.042;6.812;2024-01-10T06:42:27;19.38;;;8.43;;
31966;SDS011;18496;52.042;6.812;2024-01-10T06:44:31;18.90;;;8.90;;
31966;SDS011;18496;52.042;6.812;2024-01-10T06:46:35;24.65;;;9.65;;
31966;SDS011;18496;52.042;6.812;2024-01-10T06:48:39;21.38;;;9.70;;
31966;SDS011;18496;52.042;6.812;2024-01-10T06:50:43;20.88;;;8.65;;
31966;SDS011;18496;52.042;6.812;2024-01-10T06:52:47;18.92;;;8.80;;
31966;SDS011;18496;52.042;6.812;2024-01-10T06:54:51;19.77;;;9.18;;
31966;SDS011;18496;52.042;6.812;2024-01-10T06:56:54;22.65;;;8.65;;
31966;SDS011;18496;52.042;6.812;2024-01-10T06:58:58;19.88;;;8.80;;
31966;SDS011;18496;52.042;6.812;2024-01-10T07:01:03;19.85;;;8.40;;
31966;SDS011;18496;52.042;6.812;2024-01-10T07:03:08;19.50;;;7.57;;
31966;SDS011;18496;52.042;6.812;2024-01-10T07:05:12;19.50;;;8.10;;
31966;SDS011;18496;52.042;6.812;2024-01-10T07:07:15;20.80;;;7.68;;
31966;SDS011;18496;52.042;6.812;2024-01-10T07:09:20;18.83;;;8.77;;
31966;SDS011;18496;52.042;6.812;2024-01-10T07:11:24;20.00;;;8.20;;
31966;SDS011;18496;52.042;6.812;2024-01-10T07:13:27;21.95;;;8.75;;
31966;SDS011;18496;52.042;6.812;2024-01-10T07:15:31;26.50;;;9.27;;
31966;SDS011;18496;52.042;6.812;2024-01-10T07:17:35;25.33;;;8.32;;
31966;SDS011;18496;52.042;6.812;2024-01-10T07:19:38;15.88;;;7.90;;
31966;SDS011;18496;52.042;6.812;2024-01-10T07:21:43;23.73;;;10.15;;
31966;SDS011;18496;52.042;6.812;2024-01-10T07:23:47;19.20;;;8.20;;
31966;SDS011;18496;52.042;6.812;2024-01-10T07:25:52;25.42;;;10.13;;
31966;SDS011;18496;52.042;6.812;2024-01-10T07:27:56;21.10;;;9.70;;
31966;SDS011;18496;52.042;6.812;2024-01-10T07:30:00;20.77;;;9.23;;
31966;SDS011;18496;52.042;6.812;2024-01-10T07:32:03;23.98;;;9.23;;
31966;SDS011;18496;52.042;6.812;2024-01-10T07:34:07;23.73;;;10.00;;
31966;SDS011;18496;52.042;6.812;2024-01-10T07:36:11;26.80;;;11.60;;
31966;SDS011;18496;52.042;6.812;2024-01-10T07:38:14;26.08;;;10.70;;
31966;SDS011;18496;52.042;6.812;2024-01-10T07:40:18;22.42;;;9.95;;
31966;SDS011;18496;52.042;6.812;2024-01-10T07:42:22;25.83;;;10.45;;
31966;SDS011;18496;52.042;6.812;2024-01-10T07:44:25;25.33;;;10.20;;
31966;SDS011;18496;52.042;6.812;2024-01-10T07:46:29;23.88;;;10.55;;
31966;SDS011;18496;52.042;6.812;2024-01-10T07:48:33;25.73;;;10.32;;
31966;SDS011;18496;52.042;6.812;2024-01-10T07:50:36;21.45;;;10.93;;
31966;SDS011;18496;52.042;6.812;2024-01-10T07:52:40;22.23;;;9.50;;
31966;SDS011;18496;52.042;6.812;2024-01-10T07:54:45;26.55;;;12.05;;
31966;SDS011;18496;52.042;6.812;2024-01-10T07:56:48;28.83;;;10.18;;
31966;SDS011;18496;52.042;6.812;2024-01-10T07:58:52;31.00;;;11.48;;
31966;SDS011;18496;52.042;6.812;2024-01-10T08:00:56;23.88;;;9.00;;
31966;SDS011;18496;52.042;6.812;2024-01-10T08:02:59;34.25;;;11.60;;
31966;SDS011;18496;52.042;6.812;2024-01-10T08:05:03;35.67;;;12.18;;
31966;SDS011;18496;52.042;6.812;2024-01-10T08:07:13;31.58;;;12.07;;
31966;SDS011;18496;52.042;6.812;2024-01-10T08:09:17;39.35;;;16.13;;
31966;SDS011;18496;52.042;6.812;2024-01-10T08:11:22;34.72;;;15.30;;
31966;SDS011;18496;52.042;6.812;2024-01-10T08:13:25;24.80;;;11.50;;
31966;SDS011;18496;52.042;6.812;2024-01-10T08:15:29;25.30;;;11.65;;
31966;SDS011;18496;52.042;6.812;2024-01-10T08:17:33;31.23;;;11.60;;
31966;SDS011;18496;52.042;6.812;2024-01-10T08:19:37;23.60;;;12.25;;
31966;SDS011;18496;52.042;6.812;2024-01-10T08:21:41;25.35;;;11.02;;
31966;SDS011;18496;52.042;6.812;2024-01-10T08:23:45;25.98;;;11.93;;
31966;SDS011;18496;52.042;6.812;2024-01-10T08:25:49;22.15;;;10.73;;
31966;SDS011;18496;52.042;6.812;2024-01-10T08:27:53;21.80;;;9.88;;
31966;SDS011;18496;52.042;6.812;2024-01-10T08:29:58;29.35;;;10.65;;
31966;SDS011;18496;52.042;6.812;2024-01-10T08:32:02;33.83;;;13.27;;
31966;SDS011;18496;52.042;6.812;2024-01-10T08:34:07;34.55;;;11.80;;
31966;SDS011;18496;52.042;6.812;2024-01-10T08:36:11;27.65;;;11.02;;
31966;SDS011;18496;52.042;6.812;2024-01-10T08:38:15;32.00;;;11.55;;
31966;SDS011;18496;52.042;6.812;2024-01-10T08:40:19;35.33;;;13.30;;
31966;SDS011;18496;52.042;6.812;2024-01-10T08:42:24;32.63;;;14.10;;
31966;SDS011;18496;52.042;6.812;2024-01-10T08:44:28;32.88;;;13.30;;
31966;SDS011;18496;52.042;6.812;2024-01-10T08:46:32;25.60;;;10.70;;
31966;SDS011;18496;52.042;6.812;2024-01-10T08:48:35;23.20;;;10.23;;
31966;SDS011;18496;52.042;6.812;2024-01-10T08:50:39;26.08;;;12.43;;
31966;SDS011;18496;52.042;6.812;2024-01-10T08:52:43;25.92;;;11.82;;
31966;SDS011;18496;52.042;6.812;2024-01-10T08:54:47;33.13;;;12.68;;
31966;SDS011;18496;52.042;6.812;2024-01-10T08:56:50;35.50;;;13.40;;
31966;SDS011;18496;52.042;6.812;2024-01-10T08:58:54;37.65;;;14.43;;
31966;SDS011;18496;52.042;6.812;2024-01-10T09:00:58;37.17;;;15.00;;
31966;SDS011;18496;52.042;6.812;2024-01-10T09:03:02;24.83;;;11.05;;
31966;SDS011;18496;52.042;6.812;2024-01-10T09:05:06;31.23;;;12.13;;
31966;SDS011;18496;52.042;6.812;2024-01-10T09:07:12;35.55;;;13.60;;
31966;SDS011;18496;52.042;6.812;2024-01-10T09:09:16;41.97;;;15.40;;
31966;SDS011;18496;52.042;6.812;2024-01-10T09:11:23;37.75;;;14.20;;
31966;SDS011;18496;52.042;6.812;2024-01-10T09:13:27;25.05;;;11.45;;
31966;SDS011;18496;52.042;6.812;2024-01-10T09:15:31;25.48;;;11.40;;
31966;SDS011;18496;52.042;6.812;2024-01-10T09:17:35;29.92;;;12.50;;
31966;SDS011;18496;52.042;6.812;2024-01-10T09:19:39;28.30;;;12.55;;
31966;SDS011;18496;52.042;6.812;2024-01-10T09:21:43;28.83;;;11.85;;
31966;SDS011;18496;52.042;6.812;2024-01-10T09:23:46;33.85;;;12.07;;
31966;SDS011;18496;52.042;6.812;2024-01-10T09:25:54;26.30;;;10.95;;
31966;SDS011;18496;52.042;6.812;2024-01-10T09:27:57;28.38;;;11.73;;
31966;SDS011;18496;52.042;6.812;2024-01-10T09:30:02;28.33;;;11.90;;
31966;SDS011;18496;52.042;6.812;2024-01-10T09:32:07;23.77;;;10.52;;
31966;SDS011;18496;52.042;6.812;2024-01-10T09:34:12;27.42;;;11.25;;
31966;SDS011;18496;52.042;6.812;2024-01-10T09:36:16;27.80;;;12.15;;
31966;SDS011;18496;52.042;6.812;2024-01-10T09:38:20;26.70;;;11.90;;
31966;SDS011;18496;52.042;6.812;2024-01-10T09:40:24;30.33;;;11.38;;
31966;SDS011;18496;52.042;6.812;2024-01-10T09:42:30;31.30;;;11.13;;
31966;SDS011;18496;52.042;6.812;2024-01-10T09:44:36;23.95;;;10.68;;
31966;SDS011;18496;52.042;6.812;2024-01-10T09:46:40;27.70;;;11.82;;
31966;SDS011;18496;52.042;6.812;2024-01-10T09:48:46;29.95;;;10.52;;
31966;SDS011;18496;52.042;6.812;2024-01-10T09:50:50;30.58;;;12.30;;
31966;SDS011;18496;52.042;6.812;2024-01-10T09:52:59;30.98;;;11.75;;
31966;SDS011;18496;52.042;6.812;2024-01-10T09:55:10;28.75;;;11.73;;
31966;SDS011;18496;52.042;6.812;2024-01-10T09:57:15;28.77;;;12.23;;
31966;SDS011;18496;52.042;6.812;2024-01-10T09:59:19;27.50;;;11.65;;
31966;SDS011;18496;52.042;6.812;2024-01-10T10:01:22;27.88;;;10.73;;
31966;SDS011;18496;52.042;6.812;2024-01-10T10:03:27;24.98;;;10.90;;
31966;SDS011;18496;52.042;6.812;2024-01-10T10:05:32;25.58;;;11.02;;
31966;SDS011;18496;52.042;6.812;2024-01-10T10:09:50;33.72;;;11.95;;
31966;SDS011;18496;52.042;6.812;2024-01-10T10:11:56;26.35;;;11.32;;
31966;SDS011;18496;52.042;6.812;2024-01-10T10:14:15;27.95;;;10.50;;
31966;SDS011;18496;52.042;6.812;2024-01-10T10:16:25;29.58;;;11.50;;
31966;SDS011;18496;52.042;6.812;2024-01-10T10:18:32;27.58;;;10.65;;
31966;SDS011;18496;52.042;6.812;2024-01-10T10:20:35;28.77;;;10.75;;
31966;SDS011;18496;52.042;6.812;2024-01-10T10:22:41;28.98;;;11.95;;
31966;SDS011;18496;52.042;6.812;2024-01-10T10:25:02;28.85;;;10.85;;
31966;SDS011;18496;52.042;6.812;2024-01-10T10:27:09;30.08;;;11.70;;
31966;SDS011;18496;52.042;6.812;2024-01-10T10:29:17;29.98;;;11.60;;
31966;SDS011;18496;52.042;6.812;2024-01-10T10:31:21;26.67;;;10.77;;
31966;SDS011;18496;52.042;6.812;2024-01-10T10:33:26;26.70;;;11.43;;
31966;SDS011;18496;52.042;6.812;2024-01-10T10:35:30;26.88;;;10.20;;
31966;SDS011;18496;52.042;6.812;2024-01-10T10:37:36;34.50;;;12.20;;
31966;SDS011;18496;52.042;6.812;2024-01-10T10:39:39;27.02;;;11.23;;
31966;SDS011;18496;52.042;6.812;2024-01-10T10:41:45;30.38;;;11.20;;
31966;SDS011;18496;52.042;6.812;2024-01-10T10:43:51;25.42;;;10.07;;
31966;SDS011;18496;52.042;6.812;2024-01-10T10:45:57;37.75;;;11.73;;
31966;SDS011;18496;52.042;6.812;2024-01-10T10:48:02;33.20;;;12.23;;
31966;SDS011;18496;52.042;6.812;2024-01-10T10:50:06;28.80;;;11.77;;
31966;SDS011;18496;52.042;6.812;2024-01-10T10:52:13;26.42;;;12.05;;
31966;SDS011;18496;52.042;6.812;2024-01-10T10:54:18;30.75;;;12.02;;
31966;SDS011;18496;52.042;6.812;2024-01-10T10:56:22;29.15;;;11.50;;
31966;SDS011;18496;52.042;6.812;2024-01-10T10:58:27;28.73;;;12.23;;
31966;SDS011;18496;52.042;6.812;2024-01-10T11:00:31;26.70;;;11.13;;
31966;SDS011;18496;52.042;6.812;2024-01-10T11:02:35;26.85;;;11.70;;
31966;SDS011;18496;52.042;6.812;2024-01-10T11:04:40;25.05;;;11.32;;
31966;SDS011;18496;52.042;6.812;2024-01-10T11:06:45;25.48;;;11.75;;
31966;SDS011;18496;52.042;6.812;2024-01-10T11:08:57;25.92;;;11.13;;
31966;SDS011;18496;52.042;6.812;2024-01-10T11:11:07;24.55;;;10.55;;
31966;SDS011;18496;52.042;6.812;2024-01-10T11:13:37;28.25;;;11.75;;
31966;SDS011;18496;52.042;6.812;2024-01-10T11:18:33;32.53;;;10.73;;
31966;SDS011;18496;52.042;6.812;2024-01-10T11:25:48;27.60;;;10.15;;
31966;SDS011;18496;52.042;6.812;2024-01-10T11:27:52;29.25;;;11.15;;
31966;SDS011;18496;52.042;6.812;2024-01-10T11:29:56;30.45;;;11.57;;
31966;SDS011;18496;52.042;6.812;2024-01-10T11:32:02;31.95;;;12.27;;
31966;SDS011;18496;52.042;6.812;2024-01-10T11:34:08;41.22;;;17.20;;
31966;SDS011;18496;52.042;6.812;2024-01-10T11:36:12;38.13;;;15.10;;
31966;SDS011;18496;52.042;6.812;2024-01-10T11:38:20;30.80;;;13.50;;
31966;SDS011;18496;52.042;6.812;2024-01-10T11:42:51;25.80;;;11.25;;
31966;SDS011;18496;52.042;6.812;2024-01-10T11:44:55;31.20;;;12.27;;
31966;SDS011;18496;52.042;6.812;2024-01-10T11:46:58;32.15;;;12.18;;
31966;SDS011;18496;52.042;6.812;2024-01-10T11:49:03;28.10;;;12.15;;
31966;SDS011;18496;52.042;6.812;2024-01-10T11:51:06;24.92;;;12.05;;
31966;SDS011;18496;52.042;6.812;2024-01-10T11:53:11;27.88;;;12.10;;
31966;SDS011;18496;52.042;6.812;2024-01-10T11:55:46;25.95;;;13.00;;
31966;SDS011;18496;52.042;6.812;2024-01-10T11:58:03;24.65;;;11.27;;
31966;SDS011;18496;52.042;6.812;2024-01-10T12:00:13;27.13;;;12.05;;
31966;SDS011;18496;52.042;6.812;2024-01-10T12:02:18;24.88;;;10.85;;
31966;SDS011;18496;52.042;6.812;2024-01-10T12:04:22;33.53;;;11.52;;
31966;SDS011;18496;52.042;6.812;2024-01-10T12:06:26;33.20;;;11.95;;
31966;SDS011;18496;52.042;6.812;2024-01-10T12:08:30;26.80;;;10.50;;
31966;SDS011;18496;52.042;6.812;2024-01-10T12:10:33;29.20;;;11.80;;
31966;SDS011;18496;52.042;6.812;2024-01-10T12:12:39;24.08;;;10.75;;
31966;SDS011;18496;52.042;6.812;2024-01-10T12:14:43;27.42;;;11.35;;
31966;SDS011;18496;52.042;6.812;2024-01-10T12:16:47;28.35;;;11.43;;
31966;SDS011;18496;52.042;6.812;2024-01-10T12:18:51;30.02;;;12.02;;
31966;SDS011;18496;52.042;6.812;2024-01-10T12:20:55;30.63;;;11.25;;
31966;SDS011;18496;52.042;6.812;2024-01-10T12:22:58;24.25;;;11.50;;
31966;SDS011;18496;52.042;6.812;2024-01-10T12:25:05;26.42;;;11.18;;
31966;SDS011;18496;52.042;6.812;2024-01-10T12:27:09;30.20;;;11.73;;
31966;SDS011;18496;52.042;6.812;2024-01-10T12:29:13;28.50;;;10.65;;